createdAt,value
2018-12-18T00:00:05.044Z,18.53
2018-12-18T00:01:05.039Z,18.49
2018-12-18T00:02:05.027Z,18.49
2018-12-18T00:03:05.013Z,18.55
2018-12-18T00:04:05.032Z,18.52
2018-12-18T00:05:05.000Z,18.50
2018-12-18T00:06:05.010Z,18.49
2018-12-18T00:07:04.970Z,18.44
2018-12-18T00:08:04.965Z,18.52
2018-12-18T00:09:04.945Z,18.58
2018-12-18T00:10:04.964Z,18.53
2018-12-18T00:11:04.924Z,18.53
2018-12-18T00:12:05.349Z,18.55
2018-12-18T00:13:04.908Z,18.50
2018-12-18T00:14:04.899Z,18.43
2018-12-18T00:15:04.914Z,18.55
2018-12-18T00:16:04.871Z,18.52
2018-12-18T00:17:04.888Z,18.58
2018-12-18T00:18:05.389Z,18.50
2018-12-18T00:19:04.886Z,18.43
2018-12-18T00:20:05.007Z,18.49
2018-12-18T00:21:04.859Z,18.52
2018-12-18T00:22:04.901Z,18.55
2018-12-18T00:23:04.837Z,18.47
2018-12-18T00:24:04.865Z,18.53
2018-12-18T00:25:04.881Z,18.53
2018-12-18T00:26:04.801Z,18.50
2018-12-18T00:27:04.786Z,18.45
2018-12-18T00:28:04.761Z,18.49
2018-12-18T00:29:04.999Z,18.53
2018-12-18T00:30:04.784Z,18.50
2018-12-18T00:31:04.706Z,18.47
2018-12-18T00:32:04.705Z,18.50
2018-12-18T00:33:04.945Z,18.56
2018-12-18T00:34:04.931Z,18.50
2018-12-18T00:35:04.701Z,18.56
2018-12-18T00:36:04.653Z,18.55
2018-12-18T00:37:04.638Z,18.49
2018-12-18T00:38:04.634Z,18.49
2018-12-18T00:39:04.622Z,18.49
2018-12-18T00:40:04.636Z,18.52
2018-12-18T00:41:04.608Z,18.49
2018-12-18T00:42:04.585Z,18.49
2018-12-18T00:43:04.581Z,18.50
2018-12-18T00:44:04.567Z,18.50
2018-12-18T00:45:04.593Z,18.53
2018-12-18T00:46:04.792Z,18.49
2018-12-18T00:47:04.540Z,18.56
2018-12-18T00:48:04.522Z,18.52
2018-12-18T00:49:04.515Z,18.56
2018-12-18T00:50:04.775Z,18.52
2018-12-18T00:51:04.494Z,18.47
2018-12-18T00:52:04.735Z,18.49
2018-12-18T00:53:04.485Z,18.44
2018-12-18T00:54:04.471Z,18.49
2018-12-18T00:55:04.470Z,18.50
2018-12-18T00:56:04.441Z,18.41
2018-12-18T00:57:04.427Z,18.45
2018-12-18T00:58:04.422Z,18.50
2018-12-18T00:59:04.406Z,18.44
2018-12-18T01:00:04.677Z,18.47
2018-12-18T01:01:04.381Z,18.45
2018-12-18T01:02:04.368Z,18.52
2018-12-18T01:03:04.367Z,18.52
2018-12-18T01:04:04.344Z,18.45
2018-12-18T01:05:04.395Z,18.41
2018-12-18T01:06:04.581Z,18.52
2018-12-18T01:07:04.321Z,18.52
2018-12-18T01:08:04.307Z,18.41
2018-12-18T01:09:04.289Z,18.49
2018-12-18T01:10:04.309Z,18.50
2018-12-18T01:11:04.278Z,18.47
2018-12-18T01:12:04.271Z,18.47
2018-12-18T01:13:04.255Z,18.55
2018-12-18T01:14:04.237Z,18.45
2018-12-18T01:15:04.251Z,18.52
2018-12-18T01:16:04.230Z,18.49
2018-12-18T01:17:04.241Z,18.50
2018-12-18T01:18:04.235Z,18.49
2018-12-18T01:19:04.229Z,18.47
2018-12-18T01:20:04.263Z,18.40
2018-12-18T01:21:04.196Z,18.49
2018-12-18T01:22:04.196Z,18.43
2018-12-18T01:23:04.163Z,18.47
2018-12-18T01:24:04.163Z,18.53
2018-12-18T01:25:04.233Z,18.50
2018-12-18T01:26:04.431Z,18.52
2018-12-18T01:27:04.381Z,18.50
2018-12-18T01:28:04.124Z,18.55
2018-12-18T01:29:04.073Z,18.44
2018-12-18T01:30:04.094Z,18.50
2018-12-18T01:31:04.059Z,18.44
2018-12-18T01:32:04.043Z,18.47
2018-12-18T01:33:04.033Z,18.50
2018-12-18T01:34:04.030Z,18.47
2018-12-18T01:35:04.010Z,18.38
2018-12-18T01:36:04.258Z,18.44
2018-12-18T01:37:04.018Z,18.40
2018-12-18T01:38:04.058Z,18.38
2018-12-18T01:39:03.965Z,18.38
2018-12-18T01:40:03.956Z,18.38
2018-12-18T01:41:04.087Z,18.43
2018-12-18T01:42:03.940Z,18.41
2018-12-18T01:43:03.923Z,18.41
2018-12-18T01:44:04.096Z,18.29
2018-12-18T01:45:03.899Z,18.37
2018-12-18T01:46:03.920Z,18.43
2018-12-18T01:47:03.889Z,18.43
2018-12-18T01:48:03.874Z,18.37
2018-12-18T01:49:03.868Z,18.40
2018-12-18T01:50:04.115Z,18.26
2018-12-18T01:51:03.871Z,18.37
2018-12-18T01:52:03.825Z,18.41
2018-12-18T01:53:03.813Z,18.43
2018-12-18T01:54:03.813Z,18.43
2018-12-18T01:55:03.796Z,18.43
2018-12-18T01:56:05.183Z,18.41
2018-12-18T01:57:03.773Z,18.41
2018-12-18T01:58:03.762Z,18.37
2018-12-18T01:59:03.751Z,18.45
2018-12-18T02:00:03.751Z,18.35
2018-12-18T02:01:04.009Z,18.37
2018-12-18T02:02:03.719Z,18.40
2018-12-18T02:03:03.701Z,18.41
2018-12-18T02:04:06.174Z,18.40
2018-12-18T02:05:03.682Z,18.41
2018-12-18T02:06:03.951Z,18.41
2018-12-18T02:07:03.667Z,18.40
2018-12-18T02:08:03.707Z,18.43
2018-12-18T02:09:03.641Z,18.37
2018-12-18T02:10:03.626Z,18.34
2018-12-18T02:11:03.663Z,18.40
2018-12-18T02:12:04.116Z,18.41
2018-12-18T02:13:03.603Z,18.38
2018-12-18T02:14:03.584Z,18.41
2018-12-18T02:15:03.581Z,18.40
2018-12-18T02:16:03.593Z,18.41
2018-12-18T02:17:03.847Z,18.43
2018-12-18T02:18:03.577Z,18.43
2018-12-18T02:19:03.569Z,18.45
2018-12-18T02:20:03.557Z,18.38
2018-12-18T02:21:03.600Z,18.37
2018-12-18T02:22:03.795Z,18.44
2018-12-18T02:23:03.780Z,18.43
2018-12-18T02:24:03.513Z,18.43
2018-12-18T02:25:03.753Z,18.43
2018-12-18T02:26:03.596Z,18.45
2018-12-18T02:27:03.520Z,18.43
2018-12-18T02:28:03.772Z,18.43
2018-12-18T02:29:03.429Z,18.44
2018-12-18T02:30:03.415Z,18.44
2018-12-18T02:31:03.446Z,18.43
2018-12-18T02:32:03.399Z,18.38
2018-12-18T02:33:03.398Z,18.44
2018-12-18T02:34:03.369Z,18.40
2018-12-18T02:35:03.368Z,18.44
2018-12-18T02:36:03.526Z,18.41
2018-12-18T02:37:03.334Z,18.47
2018-12-18T02:38:03.333Z,18.50
2018-12-18T02:39:03.320Z,18.50
2018-12-18T02:40:03.295Z,18.55
2018-12-18T02:41:03.326Z,18.49
2018-12-18T02:42:03.285Z,18.45
2018-12-18T02:43:03.270Z,18.55
2018-12-18T02:44:03.259Z,18.43
2018-12-18T02:45:03.266Z,18.53
2018-12-18T02:46:03.322Z,18.56
2018-12-18T02:47:03.237Z,18.53
2018-12-18T02:48:03.216Z,18.52
2018-12-18T02:49:03.206Z,18.45
2018-12-18T02:50:03.196Z,18.47
2018-12-18T02:51:03.226Z,18.49
2018-12-18T02:52:03.178Z,18.49
2018-12-18T02:53:03.166Z,18.49
2018-12-18T02:54:03.398Z,18.53
2018-12-18T02:55:03.158Z,18.58
2018-12-18T02:56:03.248Z,18.53
2018-12-18T02:57:03.116Z,18.49
2018-12-18T02:58:03.368Z,18.55
2018-12-18T02:59:03.092Z,18.58
2018-12-18T03:00:03.095Z,18.58
2018-12-18T03:01:03.109Z,18.55
2018-12-18T03:02:03.078Z,18.52
2018-12-18T03:03:03.064Z,18.55
2018-12-18T03:04:03.135Z,18.58
2018-12-18T03:05:03.049Z,18.55
2018-12-18T03:06:03.279Z,18.56
2018-12-18T03:07:03.016Z,18.52
2018-12-18T03:08:03.000Z,18.53
2018-12-18T03:09:02.990Z,18.56
2018-12-18T03:10:03.249Z,18.55
2018-12-18T03:11:02.964Z,18.50
2018-12-18T03:12:02.970Z,18.50
2018-12-18T03:13:03.016Z,18.52
2018-12-18T03:14:02.939Z,18.52
2018-12-18T03:15:02.928Z,18.56
2018-12-18T03:16:02.925Z,18.45
2018-12-18T03:17:02.956Z,18.49
2018-12-18T03:18:02.935Z,18.52
2018-12-18T03:19:02.917Z,18.49
2018-12-18T03:20:03.160Z,18.49
2018-12-18T03:21:02.885Z,18.55
2018-12-18T03:22:02.885Z,18.50
2018-12-18T03:23:02.878Z,18.40
2018-12-18T03:24:02.857Z,18.38
2018-12-18T03:25:02.854Z,18.50
2018-12-18T03:26:02.833Z,18.50
2018-12-18T03:27:02.820Z,18.50
2018-12-18T03:28:02.788Z,18.55
2018-12-18T03:29:02.781Z,18.47
2018-12-18T03:30:02.766Z,18.47
2018-12-18T03:31:03.027Z,18.53
2018-12-18T03:32:02.741Z,18.53
2018-12-18T03:33:02.823Z,18.56
2018-12-18T03:34:02.777Z,18.52
2018-12-18T03:35:02.716Z,18.52
2018-12-18T03:36:02.698Z,18.53
2018-12-18T03:37:02.715Z,18.49
2018-12-18T03:38:02.672Z,18.50
2018-12-18T03:39:02.666Z,18.49
2018-12-18T03:40:02.652Z,18.50
2018-12-18T03:41:02.636Z,18.53
2018-12-18T03:42:02.658Z,18.53
2018-12-18T03:43:02.866Z,18.40
2018-12-18T03:44:02.863Z,18.41
2018-12-18T03:45:02.594Z,18.44
2018-12-18T03:46:02.587Z,18.44
2018-12-18T03:47:02.612Z,18.37
2018-12-18T03:48:02.643Z,18.47
2018-12-18T03:49:02.551Z,18.47
2018-12-18T03:50:02.541Z,18.45
2018-12-18T03:51:02.524Z,18.40
2018-12-18T03:52:02.555Z,18.45
2018-12-18T03:53:02.506Z,18.41
2018-12-18T03:54:02.571Z,18.44
2018-12-18T03:55:02.486Z,18.50
2018-12-18T03:56:02.726Z,18.50
2018-12-18T03:57:02.506Z,18.45
2018-12-18T03:58:02.466Z,18.47
2018-12-18T03:59:02.927Z,18.49
2018-12-18T04:00:02.437Z,18.49
2018-12-18T04:01:02.438Z,18.40
2018-12-18T04:02:02.689Z,18.44
2018-12-18T04:03:02.405Z,18.45
2018-12-18T04:04:02.404Z,18.56
2018-12-18T04:05:02.482Z,18.49
2018-12-18T04:06:02.382Z,18.45
2018-12-18T04:07:02.385Z,18.50
2018-12-18T04:08:02.359Z,18.50
2018-12-18T04:09:02.339Z,18.56
2018-12-18T04:10:02.318Z,18.52
2018-12-18T04:11:02.310Z,18.53
2018-12-18T04:12:02.583Z,18.44
2018-12-18T04:13:02.315Z,18.49
2018-12-18T04:14:02.536Z,18.52
2018-12-18T04:15:02.268Z,18.50
2018-12-18T04:16:02.262Z,18.52
2018-12-18T04:17:02.276Z,18.50
2018-12-18T04:18:02.260Z,18.50
2018-12-18T04:19:02.247Z,18.53
2018-12-18T04:20:02.248Z,18.50
2018-12-18T04:21:02.246Z,18.56
2018-12-18T04:22:02.276Z,18.49
2018-12-18T04:23:02.235Z,18.50
2018-12-18T04:24:02.172Z,18.52
2018-12-18T04:25:02.561Z,18.49
2018-12-18T04:26:02.243Z,18.45
2018-12-18T04:27:02.227Z,18.50
2018-12-18T04:28:02.748Z,18.40
2018-12-18T04:29:02.158Z,18.52
2018-12-18T04:30:02.135Z,18.50
2018-12-18T04:31:02.347Z,18.52
2018-12-18T04:32:02.128Z,18.50
2018-12-18T04:33:02.077Z,18.52
2018-12-18T04:34:02.070Z,18.41
2018-12-18T04:35:02.070Z,18.49
2018-12-18T04:36:02.078Z,18.50
2018-12-18T04:37:02.032Z,18.50
2018-12-18T04:38:02.278Z,18.37
2018-12-18T04:39:02.010Z,18.40
2018-12-18T04:40:02.060Z,18.43
2018-12-18T04:41:02.246Z,18.47
2018-12-18T04:42:01.992Z,18.43
2018-12-18T04:43:02.221Z,18.44
2018-12-18T04:44:01.963Z,18.43
2018-12-18T04:45:01.973Z,18.50
2018-12-18T04:46:01.928Z,18.49
2018-12-18T04:47:01.924Z,18.55
2018-12-18T04:48:01.907Z,18.49
2018-12-18T04:49:01.896Z,18.45
2018-12-18T04:50:02.151Z,18.43
2018-12-18T04:51:01.876Z,18.55
2018-12-18T04:52:01.866Z,18.45
2018-12-18T04:53:02.120Z,18.52
2018-12-18T04:54:01.853Z,18.50
2018-12-18T04:55:01.852Z,18.56
2018-12-18T04:56:01.824Z,18.41
2018-12-18T04:57:01.826Z,18.47
2018-12-18T04:58:01.836Z,18.49
2018-12-18T04:59:01.789Z,18.53
2018-12-18T05:00:01.785Z,18.50
2018-12-18T05:01:03.861Z,18.52
2018-12-18T05:02:06.398Z,18.44
2018-12-18T05:03:01.875Z,18.50
2018-12-18T05:04:01.940Z,18.47
2018-12-18T05:05:01.818Z,18.43
2018-12-18T05:06:01.749Z,18.44
2018-12-18T05:07:02.161Z,18.44
2018-12-18T05:08:01.779Z,18.41
2018-12-18T05:09:01.977Z,18.41
2018-12-18T05:10:01.660Z,18.49
2018-12-18T05:11:01.905Z,18.35
2018-12-18T05:12:01.661Z,18.45
2018-12-18T05:13:01.724Z,18.45
2018-12-18T05:14:01.708Z,18.49
2018-12-18T05:15:01.718Z,18.49
2018-12-18T05:16:01.653Z,18.45
2018-12-18T05:17:01.666Z,18.50
2018-12-18T05:18:02.484Z,18.53
2018-12-18T05:19:01.607Z,18.47
2018-12-18T05:20:01.553Z,18.53
2018-12-18T05:21:01.832Z,18.47
2018-12-18T05:22:01.617Z,18.47
2018-12-18T05:23:01.667Z,18.41
2018-12-18T05:24:01.640Z,18.41
2018-12-18T05:25:02.027Z,18.50
2018-12-18T05:26:01.531Z,18.49
2018-12-18T05:27:01.807Z,18.45
2018-12-18T05:28:01.638Z,18.50
2018-12-18T05:29:01.501Z,18.50
2018-12-18T05:30:01.782Z,18.44
2018-12-18T05:31:01.741Z,18.41
2018-12-18T05:32:01.460Z,18.49
2018-12-18T05:33:01.465Z,18.40
2018-12-18T05:34:01.442Z,18.45
2018-12-18T05:35:01.447Z,18.49
2018-12-18T05:36:01.532Z,18.49
2018-12-18T05:37:01.721Z,18.47
2018-12-18T05:38:01.396Z,18.52
2018-12-18T05:39:01.399Z,18.52
2018-12-18T05:40:01.411Z,18.40
2018-12-18T05:41:01.838Z,18.50
2018-12-18T05:42:01.320Z,18.45
2018-12-18T05:43:01.592Z,18.56
2018-12-18T05:44:01.306Z,18.52
2018-12-18T05:45:01.317Z,18.47
2018-12-18T05:46:01.284Z,18.59
2018-12-18T05:47:01.329Z,18.47
2018-12-18T05:48:03.123Z,18.47
2018-12-18T05:49:01.242Z,18.49
2018-12-18T05:50:01.269Z,18.44
2018-12-18T05:51:01.768Z,18.52
2018-12-18T05:52:01.259Z,18.52
2018-12-18T05:53:01.479Z,18.45
2018-12-18T05:54:01.244Z,18.47
2018-12-18T05:55:01.177Z,18.49
2018-12-18T05:56:01.167Z,18.49
2018-12-18T05:57:01.447Z,18.52
2018-12-18T05:58:01.259Z,18.45
2018-12-18T05:59:01.855Z,18.49
2018-12-18T06:00:01.386Z,18.52
2018-12-18T06:01:01.163Z,18.45
2018-12-18T06:02:01.135Z,18.52
2018-12-18T06:03:01.174Z,18.55
2018-12-18T06:04:01.114Z,18.41
2018-12-18T06:05:03.349Z,18.52
2018-12-18T06:06:01.077Z,18.45
2018-12-18T06:07:01.043Z,18.52
2018-12-18T06:08:01.318Z,18.50
2018-12-18T06:09:01.083Z,18.41
2018-12-18T06:10:01.030Z,18.47
2018-12-18T06:11:01.045Z,18.47
2018-12-18T06:12:01.001Z,18.41
2018-12-18T06:13:01.010Z,18.41
2018-12-18T06:14:01.003Z,18.50
2018-12-18T06:15:00.974Z,18.56
2018-12-18T06:16:00.960Z,18.49
2018-12-18T06:17:01.204Z,18.50
2018-12-18T06:18:01.221Z,18.52
2018-12-18T06:19:00.942Z,18.47
2018-12-18T06:20:00.954Z,18.49
2018-12-18T06:21:01.213Z,18.47
2018-12-18T06:22:00.962Z,18.53
2018-12-18T06:23:01.218Z,18.52
2018-12-18T06:24:01.072Z,18.45
2018-12-18T06:25:00.899Z,18.44
2018-12-18T06:26:01.168Z,18.52
2018-12-18T06:27:01.161Z,18.49
2018-12-18T06:28:01.397Z,18.49
2018-12-18T06:29:01.145Z,18.59
2018-12-18T06:30:00.943Z,18.59
2018-12-18T06:31:00.874Z,18.55
2018-12-18T06:32:00.781Z,18.55
2018-12-18T06:33:01.087Z,18.53
2018-12-18T06:34:00.747Z,18.52
2018-12-18T06:35:00.736Z,18.60
2018-12-18T06:36:01.294Z,18.59
2018-12-18T06:37:00.753Z,18.65
2018-12-18T06:38:00.850Z,18.63
2018-12-18T06:39:00.699Z,18.59
2018-12-18T06:40:00.751Z,18.60
2018-12-18T06:41:00.712Z,18.60
2018-12-18T06:42:01.405Z,18.56
2018-12-18T06:43:01.060Z,18.62
2018-12-18T06:44:00.925Z,18.55
2018-12-18T06:45:00.664Z,18.63
2018-12-18T06:46:00.657Z,18.74
2018-12-18T06:47:00.650Z,18.75
2018-12-18T06:48:00.867Z,18.66
2018-12-18T06:49:00.587Z,18.70
2018-12-18T06:50:00.834Z,18.66
2018-12-18T06:51:00.727Z,18.71
2018-12-18T06:52:00.550Z,18.65
2018-12-18T06:53:00.549Z,18.63
2018-12-18T06:54:00.578Z,18.74
2018-12-18T06:55:00.545Z,18.60
2018-12-18T06:56:00.512Z,18.71
2018-12-18T06:57:00.762Z,18.62
2018-12-18T06:58:00.500Z,18.77
2018-12-18T06:59:00.602Z,18.74
2018-12-18T07:00:00.680Z,18.78
2018-12-18T07:01:01.433Z,18.73
2018-12-18T07:02:00.450Z,18.68
2018-12-18T07:03:00.442Z,18.77
2018-12-18T07:04:00.455Z,18.68
2018-12-18T07:05:00.432Z,18.70
2018-12-18T07:06:00.460Z,18.70
2018-12-18T07:07:00.729Z,18.78
2018-12-18T07:08:00.666Z,18.73
2018-12-18T07:09:00.400Z,18.70
2018-12-18T07:10:00.434Z,18.77
2018-12-18T07:11:00.693Z,18.70
2018-12-18T07:12:00.370Z,18.71
2018-12-18T07:13:00.729Z,18.70
2018-12-18T07:14:00.453Z,18.71
2018-12-18T07:15:00.570Z,18.77
2018-12-18T07:16:00.321Z,18.70
2018-12-18T07:17:00.280Z,18.73
2018-12-18T07:18:00.278Z,18.68
2018-12-18T07:19:00.646Z,18.66
2018-12-18T07:20:00.288Z,18.66
2018-12-18T07:21:00.333Z,18.68
2018-12-18T07:22:00.999Z,18.70
2018-12-18T07:23:00.311Z,18.68
2018-12-18T07:24:00.376Z,18.66
2018-12-18T07:25:00.220Z,18.77
2018-12-18T07:26:00.514Z,18.78
2018-12-18T07:27:00.191Z,18.66
2018-12-18T07:28:00.446Z,18.65
2018-12-18T07:29:00.284Z,18.77
2018-12-18T07:30:00.191Z,18.73
2018-12-18T07:31:00.146Z,18.63
2018-12-18T07:32:00.364Z,18.78
2018-12-18T07:33:00.447Z,18.70
2018-12-18T07:34:00.241Z,18.66
2018-12-18T07:35:00.112Z,18.66
2018-12-18T07:36:00.134Z,18.63
2018-12-18T07:37:00.071Z,18.68
2018-12-18T07:38:00.108Z,18.60
2018-12-18T07:39:00.335Z,18.66
2018-12-18T07:40:00.372Z,18.70
2018-12-18T07:41:00.359Z,18.71
2018-12-18T07:42:00.194Z,18.70
2018-12-18T07:43:00.145Z,18.70
2018-12-18T07:44:00.077Z,18.59
2018-12-18T07:45:00.262Z,18.60
2018-12-18T07:46:00.113Z,18.63
2018-12-18T07:46:59.965Z,18.66
2018-12-18T07:48:00.869Z,18.62
2018-12-18T07:48:59.997Z,18.60
2018-12-18T07:50:00.082Z,18.62
2018-12-18T07:51:00.720Z,18.60
2018-12-18T07:52:00.036Z,18.59
2018-12-18T07:53:00.950Z,18.73
2018-12-18T07:53:59.932Z,18.70
2018-12-18T07:54:59.898Z,18.59
2018-12-18T07:56:00.431Z,18.63
2018-12-18T07:57:00.806Z,18.77
2018-12-18T07:57:59.842Z,18.80
2018-12-18T07:58:59.871Z,18.75
2018-12-18T07:59:59.970Z,18.83
2018-12-18T08:01:01.698Z,18.84
2018-12-18T08:01:59.888Z,18.96
2018-12-18T08:02:59.845Z,18.92
2018-12-18T08:03:59.911Z,18.96
2018-12-18T08:04:59.803Z,19.00
2018-12-18T08:05:59.807Z,19.04
2018-12-18T08:06:59.968Z,19.09
2018-12-18T08:08:00.750Z,19.02
2018-12-18T08:09:00.719Z,19.08
2018-12-18T08:10:00.026Z,19.11
2018-12-18T08:10:59.898Z,19.16
2018-12-18T08:12:00.655Z,19.12
2018-12-18T08:12:59.878Z,19.19
2018-12-18T08:14:00.094Z,19.27
2018-12-18T08:14:59.799Z,19.21
2018-12-18T08:15:59.741Z,19.29
2018-12-18T08:17:02.537Z,19.30
2018-12-18T08:17:59.738Z,19.29
2018-12-18T08:18:59.929Z,19.27
2018-12-18T08:19:59.637Z,19.34
2018-12-18T08:20:59.745Z,19.39
2018-12-18T08:21:59.611Z,19.39
2018-12-18T08:22:59.622Z,19.41
2018-12-18T08:23:59.591Z,19.52
2018-12-18T08:24:59.680Z,19.62
2018-12-18T08:25:59.667Z,19.59
2018-12-18T08:27:00.959Z,19.59
2018-12-18T08:28:00.306Z,19.64
2018-12-18T08:29:00.263Z,19.70
2018-12-18T08:30:00.505Z,19.70
2018-12-18T08:30:59.966Z,19.85
2018-12-18T08:32:01.369Z,19.85
2018-12-18T08:33:02.908Z,19.91
2018-12-18T08:33:59.683Z,20.03
2018-12-18T08:34:59.578Z,20.02
2018-12-18T08:35:59.480Z,20.13
2018-12-18T08:36:59.467Z,20.03
2018-12-18T08:37:59.864Z,20.18
2018-12-18T08:39:02.894Z,20.32
2018-12-18T08:40:07.630Z,20.22
2018-12-18T08:41:01.276Z,20.31
2018-12-18T08:42:01.335Z,20.36
2018-12-18T08:42:59.418Z,20.41
2018-12-18T08:43:59.390Z,20.47
2018-12-18T08:44:59.379Z,20.51
2018-12-18T08:45:59.428Z,20.60
2018-12-18T08:46:59.562Z,20.67
2018-12-18T08:47:59.331Z,20.74
2018-12-18T08:49:00.278Z,20.82
2018-12-18T08:49:59.279Z,20.77
2018-12-18T08:50:59.332Z,20.81
2018-12-18T08:51:59.287Z,20.90
2018-12-18T08:52:59.644Z,20.96
2018-12-18T08:53:59.250Z,20.93
2018-12-18T08:54:59.472Z,21.05
2018-12-18T08:55:59.263Z,21.09
2018-12-18T08:56:59.207Z,21.14
2018-12-18T08:57:59.205Z,21.24
2018-12-18T08:58:59.252Z,21.15
2018-12-18T08:59:59.230Z,21.15
2018-12-18T09:00:59.215Z,21.18
2018-12-18T09:01:59.174Z,21.29
2018-12-18T09:02:59.129Z,21.32
2018-12-18T09:03:59.127Z,21.32
2018-12-18T09:04:59.110Z,21.35
2018-12-18T09:05:59.337Z,21.39
2018-12-18T09:06:59.158Z,21.27
2018-12-18T09:07:59.085Z,21.33
2018-12-18T09:08:59.062Z,21.29
2018-12-18T09:09:59.061Z,21.37
2018-12-18T09:10:59.092Z,21.40
2018-12-18T09:11:59.037Z,21.46
2018-12-18T09:12:59.304Z,21.37
2018-12-18T09:13:59.030Z,21.46
2018-12-18T09:14:59.248Z,21.58
2018-12-18T09:15:59.067Z,21.55
2018-12-18T09:16:59.017Z,21.64
2018-12-18T09:17:59.007Z,21.69
2018-12-18T09:18:59.002Z,21.66
2018-12-18T09:19:58.959Z,21.62
2018-12-18T09:20:59.032Z,21.70
2018-12-18T09:21:58.972Z,21.70
2018-12-18T09:22:58.966Z,21.75
2018-12-18T09:23:58.951Z,21.73
2018-12-18T09:24:58.957Z,21.72
2018-12-18T09:25:58.967Z,21.76
2018-12-18T09:26:58.916Z,21.80
2018-12-18T09:27:58.891Z,21.77
2018-12-18T09:28:59.001Z,21.89
2018-12-18T09:29:59.122Z,21.91
2018-12-18T09:30:59.108Z,21.89
2018-12-18T09:31:58.858Z,21.92
2018-12-18T09:32:58.800Z,21.89
2018-12-18T09:33:58.800Z,21.96
2018-12-18T09:34:58.827Z,21.95
2018-12-18T09:35:58.785Z,21.99
2018-12-18T09:36:58.760Z,21.88
2018-12-18T09:37:58.753Z,21.88
2018-12-18T09:38:58.740Z,22.08
2018-12-18T09:39:59.075Z,21.99
2018-12-18T09:40:59.022Z,22.10
2018-12-18T09:41:58.998Z,22.14
2018-12-18T09:42:58.708Z,22.15
2018-12-18T09:43:58.685Z,22.15
2018-12-18T09:44:58.724Z,22.08
2018-12-18T09:45:58.665Z,22.15
2018-12-18T09:46:58.655Z,22.15
2018-12-18T09:47:58.672Z,22.18
2018-12-18T09:48:58.656Z,22.20
2018-12-18T09:49:58.789Z,22.18
2018-12-18T09:50:58.616Z,22.23
2018-12-18T09:51:58.602Z,22.23
2018-12-18T09:52:58.868Z,22.22
2018-12-18T09:53:58.592Z,22.23
2018-12-18T09:54:58.575Z,22.29
2018-12-18T09:55:58.630Z,22.28
2018-12-18T09:56:58.965Z,22.28
2018-12-18T09:57:58.617Z,22.28
2018-12-18T09:58:58.553Z,22.26
2018-12-18T09:59:58.829Z,22.33
2018-12-18T10:00:58.501Z,22.36
2018-12-18T10:01:58.560Z,22.28
2018-12-18T10:02:58.492Z,22.44
2018-12-18T10:03:58.465Z,22.39
2018-12-18T10:04:58.880Z,22.43
2018-12-18T10:05:58.475Z,22.48
2018-12-18T10:06:59.390Z,22.43
2018-12-18T10:07:58.772Z,22.54
2018-12-18T10:08:59.096Z,22.48
2018-12-18T10:09:58.456Z,22.39
2018-12-18T10:10:58.458Z,22.48
2018-12-18T10:11:59.223Z,22.59
2018-12-18T10:12:58.635Z,22.70
2018-12-18T10:13:58.443Z,22.55
2018-12-18T10:14:58.635Z,22.57
2018-12-18T10:15:58.400Z,22.65
2018-12-18T10:16:58.673Z,22.68
2018-12-18T10:17:58.647Z,22.68
2018-12-18T10:18:58.350Z,22.63
2018-12-18T10:19:58.389Z,22.66
2018-12-18T10:20:58.581Z,22.68
2018-12-18T10:21:58.668Z,22.75
2018-12-18T10:22:58.316Z,22.75
2018-12-18T10:23:58.327Z,22.68
2018-12-18T10:24:58.794Z,22.73
2018-12-18T10:25:58.281Z,22.66
2018-12-18T10:26:58.368Z,22.85
2018-12-18T10:27:58.262Z,22.75
2018-12-18T10:28:58.233Z,22.76
2018-12-18T10:29:58.245Z,22.81
2018-12-18T10:30:58.239Z,22.84
2018-12-18T10:31:58.560Z,22.88
2018-12-18T10:32:58.214Z,22.87
2018-12-18T10:33:58.229Z,22.83
2018-12-18T10:34:58.185Z,22.91
2018-12-18T10:36:02.890Z,22.90
2018-12-18T10:36:58.354Z,22.91
2018-12-18T10:37:58.392Z,22.96
2018-12-18T10:38:59.124Z,22.96
2018-12-18T10:39:58.125Z,22.98
2018-12-18T10:40:58.131Z,22.96
2018-12-18T10:41:58.415Z,23.02
2018-12-18T10:42:58.310Z,22.98
2018-12-18T10:43:58.046Z,23.00
2018-12-18T10:44:58.055Z,23.08
2018-12-18T10:45:58.070Z,23.09
2018-12-18T10:46:58.046Z,23.09
2018-12-18T10:47:58.264Z,23.08
2018-12-18T10:49:03.442Z,23.03
2018-12-18T10:49:58.225Z,23.08
2018-12-18T10:50:57.975Z,23.12
2018-12-18T10:51:57.984Z,23.10
2018-12-18T10:52:58.010Z,23.10
2018-12-18T10:53:57.938Z,23.10
2018-12-18T10:54:58.301Z,23.20
2018-12-18T10:55:57.933Z,23.08
2018-12-18T10:56:57.893Z,23.15
2018-12-18T10:57:57.890Z,23.06
2018-12-18T10:58:57.905Z,23.08
2018-12-18T10:59:57.876Z,23.06
2018-12-18T11:00:57.973Z,23.09
2018-12-18T11:01:57.875Z,23.13
2018-12-18T11:02:57.943Z,23.05
2018-12-18T11:03:57.819Z,23.02
2018-12-18T11:04:57.903Z,23.08
2018-12-18T11:05:59.812Z,23.10
2018-12-18T11:06:57.868Z,23.13
2018-12-18T11:07:58.064Z,23.09
2018-12-18T11:08:57.941Z,23.09
2018-12-18T11:09:57.764Z,23.08
2018-12-18T11:10:58.255Z,23.08
2018-12-18T11:11:57.785Z,23.12
2018-12-18T11:12:57.908Z,23.06
2018-12-18T11:13:57.980Z,23.08
2018-12-18T11:14:57.720Z,23.02
2018-12-18T11:15:57.982Z,23.03
2018-12-18T11:17:01.409Z,23.05
2018-12-18T11:17:57.769Z,23.03
2018-12-18T11:18:57.674Z,23.06
2018-12-18T11:19:57.653Z,23.05
2018-12-18T11:20:57.720Z,23.03
2018-12-18T11:21:57.664Z,22.99
2018-12-18T11:22:57.982Z,22.91
2018-12-18T11:23:57.624Z,22.99
2018-12-18T11:24:57.622Z,22.91
2018-12-18T11:25:57.643Z,22.93
2018-12-18T11:26:57.653Z,22.90
2018-12-18T11:27:58.015Z,22.84
2018-12-18T11:28:57.608Z,22.84
2018-12-18T11:29:57.553Z,22.83
2018-12-18T11:30:57.608Z,22.84
2018-12-18T11:31:57.781Z,22.81
2018-12-18T11:32:57.747Z,22.81
2018-12-18T11:33:57.508Z,22.70
2018-12-18T11:34:57.551Z,22.76
2018-12-18T11:35:57.493Z,22.72
2018-12-18T11:36:57.494Z,22.68
2018-12-18T11:37:57.501Z,22.65
2018-12-18T11:38:57.455Z,22.65
2018-12-18T11:39:57.455Z,22.62
2018-12-18T11:40:57.431Z,22.65
2018-12-18T11:41:57.452Z,22.66
2018-12-18T11:42:57.483Z,22.55
2018-12-18T11:43:57.429Z,22.59
2018-12-18T11:44:59.480Z,22.55
2018-12-18T11:45:58.144Z,22.53
2018-12-18T11:46:57.626Z,22.51
2018-12-18T11:47:57.403Z,22.39
2018-12-18T11:48:57.354Z,22.39
2018-12-18T11:49:57.357Z,22.29
2018-12-18T11:50:57.326Z,22.30
2018-12-18T11:51:57.303Z,22.28
2018-12-18T11:52:57.325Z,22.18
2018-12-18T11:53:57.305Z,22.23
2018-12-18T11:54:57.524Z,22.13
2018-12-18T11:55:57.543Z,22.17
2018-12-18T11:56:57.262Z,22.07
2018-12-18T11:57:57.325Z,22.08
2018-12-18T11:58:57.238Z,21.96
2018-12-18T11:59:57.913Z,21.96
2018-12-18T12:00:57.344Z,21.99
2018-12-18T12:01:57.227Z,21.99
2018-12-18T12:02:57.312Z,21.93
2018-12-18T12:03:57.180Z,21.93
2018-12-18T12:04:57.164Z,21.82
2018-12-18T12:05:57.150Z,21.75
2018-12-18T12:06:57.162Z,21.70
2018-12-18T12:07:57.190Z,21.66
2018-12-18T12:08:57.228Z,21.67
2018-12-18T12:09:57.131Z,21.66
2018-12-18T12:10:57.175Z,21.60
2018-12-18T12:11:57.169Z,21.60
2018-12-18T12:12:57.116Z,21.50
2018-12-18T12:13:57.150Z,21.45
2018-12-18T12:14:57.052Z,21.35
2018-12-18T12:15:57.048Z,21.36
2018-12-18T12:16:57.069Z,21.36
2018-12-18T12:17:57.137Z,21.32
2018-12-18T12:18:57.149Z,21.30
2018-12-18T12:19:57.122Z,21.25
2018-12-18T12:20:57.061Z,21.17
2018-12-18T12:21:57.044Z,21.15
2018-12-18T12:22:57.056Z,21.22
2018-12-18T12:23:57.011Z,21.24
2018-12-18T12:24:56.980Z,21.21
2018-12-18T12:25:56.972Z,21.14
2018-12-18T12:26:56.953Z,21.06
2018-12-18T12:27:56.965Z,21.06
2018-12-18T12:28:57.002Z,21.00
2018-12-18T12:29:56.951Z,21.06
2018-12-18T12:30:56.954Z,21.02
2018-12-18T12:31:56.871Z,20.92
2018-12-18T12:32:56.858Z,20.88
2018-12-18T12:33:56.887Z,20.84
2018-12-18T12:34:56.848Z,20.82
2018-12-18T12:35:56.818Z,20.88
2018-12-18T12:36:56.963Z,20.78
2018-12-18T12:37:56.808Z,20.72
2018-12-18T12:38:56.833Z,20.77
2018-12-18T12:39:56.802Z,20.62
2018-12-18T12:40:56.790Z,20.67
2018-12-18T12:41:56.761Z,20.66
2018-12-18T12:42:56.770Z,20.62
2018-12-18T12:43:56.781Z,20.56
2018-12-18T12:44:56.756Z,20.51
2018-12-18T12:45:56.720Z,20.50
2018-12-18T12:46:56.970Z,20.50
2018-12-18T12:47:56.955Z,20.47
2018-12-18T12:48:56.722Z,20.44
2018-12-18T12:49:56.933Z,20.51
2018-12-18T12:50:56.684Z,20.36
2018-12-18T12:51:56.677Z,20.39